createdAt,value
2022-12-27T00:00:15.470Z,21.73
2022-12-27T00:03:17.718Z,22.83
2022-12-27T00:06:22.302Z,19.95
2022-12-27T00:09:24.591Z,19.62
2022-12-27T00:12:26.771Z,24.20
2022-12-27T00:15:28.945Z,18.93
2022-12-27T00:18:31.071Z,18.60
2022-12-27T00:21:33.580Z,19.92
2022-12-27T00:24:35.827Z,23.70
2022-12-27T00:27:38.364Z,24.27
2022-12-27T00:30:40.463Z,24.57
2022-12-27T00:33:44.503Z,24.23
2022-12-27T00:36:46.538Z,22.70
2022-12-27T00:39:48.618Z,22.40
2022-12-27T00:42:50.773Z,22.85
2022-12-27T00:45:53.081Z,23.43
2022-12-27T00:48:55.607Z,23.97
2022-12-27T00:51:57.618Z,22.65
2022-12-27T00:54:59.681Z,18.45
2022-12-27T00:58:02.054Z,20.05
2022-12-27T01:01:13.035Z,18.00
2022-12-27T01:04:17.394Z,20.23
2022-12-27T01:07:19.869Z,22.67
2022-12-27T01:10:22.049Z,21.25
2022-12-27T01:13:24.149Z,19.10
2022-12-27T01:16:28.189Z,18.13
2022-12-27T01:19:30.425Z,16.40
2022-12-27T01:22:32.531Z,19.42
2022-12-27T01:25:34.579Z,17.95
2022-12-27T01:28:36.984Z,17.05
2022-12-27T01:31:39.355Z,18.97
2022-12-27T01:34:41.558Z,16.47
2022-12-27T01:37:43.703Z,19.87
2022-12-27T01:40:45.725Z,19.95
2022-12-27T01:43:47.781Z,18.20
2022-12-27T01:46:50.135Z,19.90
2022-12-27T01:50:10.143Z,21.57
2022-12-27T01:53:33.661Z,17.20
2022-12-27T01:56:35.741Z,19.20
2022-12-27T01:59:39.026Z,18.15
2022-12-27T02:02:41.596Z,19.93
2022-12-27T02:05:43.810Z,16.73
2022-12-27T02:08:57.941Z,14.30
2022-12-27T02:12:02.125Z,16.85
2022-12-27T02:15:04.779Z,15.20
2022-12-27T02:18:06.888Z,15.80
2022-12-27T02:21:44.531Z,16.77
2022-12-27T02:24:46.501Z,17.90
2022-12-27T02:28:10.050Z,18.75
2022-12-27T02:31:20.984Z,18.27
2022-12-27T02:34:28.942Z,16.80
2022-12-27T02:37:34.853Z,16.80
2022-12-27T02:40:59.684Z,19.37
2022-12-27T02:44:20.402Z,16.12
2022-12-27T02:47:43.436Z,14.05
2022-12-27T02:51:20.137Z,16.53
2022-12-27T02:54:40.683Z,17.70
2022-12-27T02:57:56.174Z,21.55
2022-12-27T03:01:49.230Z,16.52
2022-12-27T03:05:24.040Z,17.08
2022-12-27T03:08:35.084Z,15.60
2022-12-27T03:12:12.225Z,17.17
2022-12-27T03:15:55.313Z,18.30
2022-12-27T03:19:00.282Z,16.45
2022-12-27T03:22:22.795Z,15.23
2022-12-27T03:25:29.131Z,16.57
2022-12-27T03:28:51.676Z,16.53
2022-12-27T03:32:19.816Z,15.25
2022-12-27T03:35:23.669Z,15.25
2022-12-27T03:38:27.605Z,15.85
2022-12-27T03:42:11.346Z,14.70
2022-12-27T03:45:13.574Z,15.50
2022-12-27T03:48:20.461Z,14.95
2022-12-27T03:51:25.150Z,18.02
2022-12-27T03:54:32.059Z,15.00
2022-12-27T03:57:34.431Z,15.63
2022-12-27T04:00:36.576Z,17.97
2022-12-27T04:03:38.800Z,15.68
2022-12-27T04:06:40.919Z,16.05
2022-12-27T04:10:01.694Z,19.40
2022-12-27T04:13:22.373Z,17.93
2022-12-27T04:16:42.945Z,17.90
2022-12-27T04:20:03.749Z,17.08
2022-12-27T04:23:24.824Z,18.65
2022-12-27T04:26:45.633Z,18.02
2022-12-27T04:30:06.336Z,20.40
2022-12-27T04:33:27.168Z,19.87
2022-12-27T04:36:29.226Z,26.90
2022-12-27T04:39:32.417Z,19.10
2022-12-27T04:42:53.133Z,22.08
2022-12-27T04:46:13.811Z,20.67
2022-12-27T04:49:45.469Z,18.80
2022-12-27T04:53:06.673Z,20.98
2022-12-27T04:56:08.795Z,17.95
2022-12-27T04:59:29.594Z,18.83
2022-12-27T05:02:31.808Z,16.70
2022-12-27T05:05:35.653Z,19.93
2022-12-27T05:08:56.590Z,18.42
2022-12-27T05:12:17.906Z,17.80
2022-12-27T05:15:20.047Z,18.33
2022-12-27T05:18:22.244Z,17.10
2022-12-27T05:21:24.897Z,18.20
2022-12-27T05:24:45.511Z,19.83
2022-12-27T05:27:47.551Z,20.33
2022-12-27T05:30:49.650Z,19.17
2022-12-27T05:33:52.896Z,20.43
2022-12-27T05:36:55.000Z,22.93
2022-12-27T05:39:56.997Z,20.08
2022-12-27T05:43:00.758Z,21.45
2022-12-27T05:46:12.234Z,19.50
2022-12-27T05:49:14.481Z,21.47
2022-12-27T05:52:16.514Z,22.53
2022-12-27T05:55:18.632Z,20.67
2022-12-27T05:58:20.814Z,20.10
2022-12-27T06:01:22.998Z,19.35
2022-12-27T06:04:25.123Z,21.60
2022-12-27T06:07:27.195Z,19.90
2022-12-27T06:10:29.339Z,19.15
2022-12-27T06:13:31.946Z,22.52
2022-12-27T06:16:34.052Z,23.77
2022-12-27T06:19:36.471Z,22.23
2022-12-27T06:22:38.553Z,26.97
2022-12-27T06:25:40.598Z,23.58
2022-12-27T06:28:42.770Z,26.85
2022-12-27T06:31:45.004Z,24.10
2022-12-27T06:34:47.119Z,23.47
2022-12-27T06:37:49.176Z,25.20
2022-12-27T06:40:51.298Z,22.33
2022-12-27T06:43:58.201Z,22.13
2022-12-27T06:47:00.320Z,23.52
2022-12-27T06:50:03.266Z,23.07
2022-12-27T06:53:05.439Z,24.60
2022-12-27T06:56:13.359Z,29.40
2022-12-27T06:59:15.574Z,24.92
2022-12-27T07:02:18.040Z,23.92
2022-12-27T07:05:20.223Z,22.43
2022-12-27T07:08:22.454Z,22.80
2022-12-27T07:11:25.198Z,24.70
2022-12-27T07:14:27.852Z,21.70
2022-12-27T07:17:30.029Z,22.50
2022-12-27T07:20:32.139Z,23.27
2022-12-27T07:23:35.294Z,22.10
2022-12-27T07:26:37.448Z,24.40
2022-12-27T07:29:45.263Z,20.33
2022-12-27T07:32:47.870Z,21.40
2022-12-27T07:35:49.955Z,21.63
2022-12-27T07:38:52.431Z,20.37
2022-12-27T07:41:54.575Z,21.65
2022-12-27T07:44:56.619Z,23.45
2022-12-27T07:47:58.743Z,23.80
2022-12-27T07:51:01.363Z,23.67
2022-12-27T07:54:03.860Z,24.53
2022-12-27T07:57:05.944Z,25.88
2022-12-27T08:00:08.795Z,24.90
2022-12-27T08:03:11.463Z,25.25
2022-12-27T08:06:35.092Z,21.93
2022-12-27T08:09:40.546Z,23.53
2022-12-27T08:12:42.580Z,20.95
2022-12-27T08:15:44.777Z,23.15
2022-12-27T08:18:47.232Z,22.77
2022-12-27T08:21:49.360Z,22.87
2022-12-27T08:24:51.503Z,24.33
2022-12-27T08:27:53.607Z,22.30
2022-12-27T08:30:55.756Z,21.30
2022-12-27T08:33:58.832Z,24.65
2022-12-27T08:37:01.025Z,22.17
2022-12-27T08:40:03.539Z,25.77
2022-12-27T08:43:05.784Z,26.95
2022-12-27T08:46:08.729Z,26.83
2022-12-27T08:49:10.880Z,28.98
2022-12-27T08:52:12.993Z,31.87
2022-12-27T08:55:15.184Z,24.73
2022-12-27T08:58:17.209Z,27.00
2022-12-27T09:01:19.779Z,22.05
2022-12-27T09:04:23.022Z,25.90
2022-12-27T09:07:25.066Z,19.10
2022-12-27T09:10:27.565Z,18.10
2022-12-27T09:13:29.835Z,16.90
2022-12-27T09:16:34.329Z,17.90
2022-12-27T09:19:36.636Z,14.18
2022-12-27T09:22:39.227Z,16.50
2022-12-27T09:25:41.378Z,17.47
2022-12-27T09:28:44.291Z,18.70
2022-12-27T09:31:46.694Z,20.42
2022-12-27T09:34:48.768Z,23.52
2022-12-27T09:37:51.775Z,19.27
2022-12-27T09:40:56.955Z,15.30
2022-12-27T09:44:07.509Z,12.37
2022-12-27T09:47:31.911Z,10.82
2022-12-27T09:50:40.716Z,10.90
2022-12-27T09:54:10.893Z,12.13
2022-12-27T09:57:26.546Z,13.73
2022-12-27T10:00:34.709Z,12.50
2022-12-27T10:03:38.263Z,11.55
2022-12-27T10:06:49.155Z,9.82
2022-12-27T10:10:29.573Z,10.83
2022-12-27T10:13:41.992Z,9.07
2022-12-27T10:17:04.084Z,10.15
2022-12-27T10:20:30.463Z,10.73
2022-12-27T10:23:35.085Z,8.65
2022-12-27T10:26:38.899Z,9.80
2022-12-27T10:29:42.735Z,8.90
2022-12-27T10:32:44.927Z,7.82
2022-12-27T10:35:48.746Z,10.50
2022-12-27T10:38:50.950Z,12.95
2022-12-27T10:42:32.125Z,8.70
2022-12-27T10:45:37.177Z,10.03
2022-12-27T10:49:11.438Z,11.15
2022-12-27T10:52:16.205Z,10.95
2022-12-27T10:55:39.303Z,12.73
2022-12-27T10:58:50.269Z,10.13
2022-12-27T11:02:04.125Z,10.90
2022-12-27T11:05:29.645Z,12.57
2022-12-27T11:08:32.042Z,12.10
2022-12-27T11:11:34.109Z,15.27
2022-12-27T11:14:37.343Z,13.33
2022-12-27T11:17:46.090Z,12.80
2022-12-27T11:20:51.268Z,10.10
2022-12-27T11:23:57.708Z,12.32
2022-12-27T11:27:00.411Z,11.95
2022-12-27T11:30:02.729Z,9.30
2022-12-27T11:33:25.213Z,9.90
2022-12-27T11:36:40.856Z,10.45
2022-12-27T11:39:52.061Z,8.70
2022-12-27T11:43:15.652Z,9.10
2022-12-27T11:46:42.697Z,11.17
2022-12-27T11:49:56.446Z,11.47
2022-12-27T11:53:23.682Z,9.07
2022-12-27T11:56:37.053Z,8.13
2022-12-27T11:59:53.474Z,11.20
2022-12-27T12:03:07.592Z,9.13
2022-12-27T12:06:34.494Z,8.90
2022-12-27T12:10:04.850Z,9.13
2022-12-27T12:13:18.849Z,7.95
2022-12-27T12:16:29.754Z,9.13
2022-12-27T12:19:46.611Z,7.50
2022-12-27T12:23:19.035Z,8.00
2022-12-27T12:26:23.184Z,7.22
2022-12-27T12:29:52.920Z,6.37
2022-12-27T12:33:15.054Z,8.10
2022-12-27T12:36:53.064Z,6.00
2022-12-27T12:40:04.112Z,6.17
2022-12-27T12:43:43.744Z,4.45
2022-12-27T12:47:00.898Z,2.37
2022-12-27T12:50:18.264Z,2.70
2022-12-27T12:53:32.732Z,3.63
2022-12-27T12:57:05.479Z,3.63
2022-12-27T13:00:40.054Z,1.48
2022-12-27T13:03:47.902Z,1.90
2022-12-27T13:07:08.735Z,3.97
2022-12-27T13:10:33.310Z,2.60
2022-12-27T13:13:54.362Z,3.33
2022-12-27T13:17:05.282Z,3.90
2022-12-27T13:20:41.622Z,4.65
2022-12-27T13:24:26.287Z,2.37
2022-12-27T13:27:40.985Z,4.70
2022-12-27T13:30:52.120Z,4.47
2022-12-27T13:34:03.784Z,4.12
2022-12-27T13:37:13.740Z,4.75
2022-12-27T13:40:28.981Z,4.03
2022-12-27T13:43:45.781Z,4.53
2022-12-27T13:46:59.833Z,2.83
2022-12-27T13:50:26.513Z,7.80
2022-12-27T13:53:51.238Z,8.48
2022-12-27T13:57:11.709Z,9.50
2022-12-27T14:00:20.981Z,5.47
2022-12-27T14:03:59.939Z,7.90
2022-12-27T14:07:26.390Z,5.55
2022-12-27T14:10:46.579Z,5.95
2022-12-27T14:13:49.613Z,7.07
2022-12-27T14:17:06.841Z,5.93
2022-12-27T14:20:17.442Z,4.03
2022-12-27T14:23:34.914Z,6.12
2022-12-27T14:27:12.807Z,4.60
2022-12-27T14:30:59.698Z,5.32
2022-12-27T14:34:10.515Z,4.93
2022-12-27T14:37:49.837Z,3.93
2022-12-27T14:41:29.581Z,5.65
2022-12-27T14:45:02.798Z,5.10
2022-12-27T14:48:39.604Z,11.43
2022-12-27T14:52:01.627Z,5.87
2022-12-27T14:55:36.029Z,2.93
2022-12-27T14:58:53.230Z,3.70
2022-12-27T15:02:17.185Z,6.25
2022-12-27T15:05:19.447Z,8.43
2022-12-27T15:08:41.201Z,7.83
2022-12-27T15:12:05.245Z,5.70
2022-12-27T15:15:19.400Z,13.77
2022-12-27T15:18:41.655Z,8.38
2022-12-27T15:21:46.811Z,8.65
2022-12-27T15:25:19.657Z,10.70
2022-12-27T15:28:42.788Z,12.47
2022-12-27T15:32:07.953Z,11.70
2022-12-27T15:35:16.003Z,11.88
2022-12-27T15:38:27.232Z,12.27
2022-12-27T15:41:55.958Z,14.90
2022-12-27T15:45:23.222Z,9.90
2022-12-27T15:48:39.812Z,11.05
2022-12-27T15:52:27.871Z,11.90
2022-12-27T15:55:57.506Z,12.90
2022-12-27T15:59:29.746Z,12.40
2022-12-27T16:02:33.282Z,10.80
2022-12-27T16:05:49.238Z,13.05
2022-12-27T16:09:18.626Z,10.88
2022-12-27T16:12:39.576Z,13.82
2022-12-27T16:15:53.366Z,14.40
2022-12-27T16:18:58.412Z,14.00
2022-12-27T16:22:00.509Z,12.35
2022-12-27T16:25:26.975Z,13.38
2022-12-27T16:28:35.785Z,13.13
2022-12-27T16:31:45.517Z,26.20
2022-12-27T16:34:51.836Z,18.80
2022-12-27T16:37:56.054Z,20.05
2022-12-27T16:41:15.632Z,48.33
2022-12-27T16:44:54.916Z,38.35
2022-12-27T16:48:06.413Z,45.13
2022-12-27T16:51:14.684Z,33.30
2022-12-27T16:54:27.992Z,33.67
2022-12-27T16:57:39.664Z,35.83
2022-12-27T17:00:44.175Z,32.20
2022-12-27T17:03:48.502Z,23.83
2022-12-27T17:06:56.298Z,26.03
2022-12-27T17:10:27.268Z,24.12
2022-12-27T17:13:55.591Z,28.92
2022-12-27T17:17:04.092Z,27.45
2022-12-27T17:20:13.194Z,26.27
2022-12-27T17:23:15.669Z,27.60
2022-12-27T17:26:38.476Z,11.77
2022-12-27T17:29:59.553Z,10.35
2022-12-27T17:33:35.938Z,12.52
2022-12-27T17:36:59.094Z,12.73
2022-12-27T17:40:11.365Z,13.73
2022-12-27T17:43:38.732Z,11.45
2022-12-27T17:47:03.047Z,15.05
2022-12-27T17:50:12.275Z,15.95
2022-12-27T17:53:36.864Z,17.77
2022-12-27T17:57:15.634Z,12.80
2022-12-27T18:00:26.280Z,15.43
2022-12-27T18:03:36.103Z,12.55
2022-12-27T18:06:40.018Z,15.10
2022-12-27T18:09:51.940Z,19.43
2022-12-27T18:13:02.256Z,18.20
2022-12-27T18:16:18.967Z,28.25
2022-12-27T18:19:22.237Z,37.38
2022-12-27T18:22:24.875Z,33.95
2022-12-27T18:25:40.679Z,44.23
2022-12-27T18:28:43.617Z,48.90
2022-12-27T18:31:49.559Z,42.53
2022-12-27T18:34:57.648Z,44.08
2022-12-27T18:38:01.881Z,36.00
2022-12-27T18:41:09.046Z,35.67
2022-12-27T18:44:22.995Z,32.63
2022-12-27T18:47:29.629Z,29.50
2022-12-27T18:50:34.743Z,29.65
2022-12-27T18:53:40.739Z,29.10
2022-12-27T18:56:43.200Z,29.97
2022-12-27T19:00:02.766Z,27.90
2022-12-27T19:03:17.757Z,25.88
2022-12-27T19:06:20.722Z,33.17
2022-12-27T19:09:30.924Z,32.72
2022-12-27T19:12:40.718Z,28.00
2022-12-27T19:15:44.334Z,28.50
2022-12-27T19:18:51.942Z,37.72
2022-12-27T19:21:54.806Z,34.00
2022-12-27T19:25:02.202Z,38.05
2022-12-27T19:28:11.055Z,32.00
2022-12-27T19:31:22.108Z,29.10
2022-12-27T19:34:27.690Z,34.22
2022-12-27T19:37:32.647Z,28.30
2022-12-27T19:40:34.930Z,27.67
2022-12-27T19:43:43.793Z,39.80
2022-12-27T19:46:46.529Z,31.57
2022-12-27T19:49:50.941Z,28.30
2022-12-27T19:52:53.637Z,23.80
2022-12-27T19:55:58.384Z,28.62
2022-12-27T19:59:00.759Z,29.97
2022-12-27T20:02:03.447Z,28.17
2022-12-27T20:05:07.140Z,27.65
2022-12-27T20:08:34.548Z,32.83
2022-12-27T20:11:37.430Z,34.95
2022-12-27T20:14:40.315Z,38.70
2022-12-27T20:17:45.135Z,32.87
2022-12-27T20:20:48.804Z,37.05
2022-12-27T20:23:51.386Z,39.10
2022-12-27T20:26:55.589Z,36.50
2022-12-27T20:29:58.232Z,43.37
2022-12-27T20:33:01.399Z,53.23
2022-12-27T20:36:04.647Z,39.35
2022-12-27T20:39:07.853Z,35.15
2022-12-27T20:42:10.743Z,30.30
2022-12-27T20:45:13.375Z,40.77
2022-12-27T20:48:16.144Z,37.00
2022-12-27T20:51:22.366Z,31.85
2022-12-27T20:54:25.146Z,34.08
2022-12-27T20:57:28.093Z,33.65
2022-12-27T21:00:31.146Z,32.03
2022-12-27T21:03:33.482Z,29.03
2022-12-27T21:06:35.927Z,26.60
2022-12-27T21:09:38.177Z,22.37
2022-12-27T21:12:40.807Z,30.05
2022-12-27T21:15:46.561Z,33.80
2022-12-27T21:18:49.406Z,28.23
2022-12-27T21:21:51.856Z,28.80
2022-12-27T21:24:54.322Z,27.52
2022-12-27T21:27:56.545Z,27.50
2022-12-27T21:30:59.048Z,32.13
2022-12-27T21:34:01.402Z,28.07
2022-12-27T21:37:07.437Z,26.08
2022-12-27T21:40:12.471Z,26.67
2022-12-27T21:43:14.557Z,28.87
2022-12-27T21:46:18.400Z,30.40
2022-12-27T21:49:20.733Z,27.00
2022-12-27T21:52:22.846Z,25.55
2022-12-27T21:55:24.867Z,31.52
2022-12-27T21:58:30.545Z,28.02
2022-12-27T22:01:50.389Z,25.30
2022-12-27T22:04:53.600Z,27.77
2022-12-27T22:07:56.182Z,27.92
2022-12-27T22:10:58.377Z,28.52
2022-12-27T22:14:01.112Z,31.65
2022-12-27T22:17:03.769Z,28.90
2022-12-27T22:20:06.664Z,27.43
2022-12-27T22:23:08.813Z,25.85
2022-12-27T22:26:13.960Z,27.08
2022-12-27T22:29:16.389Z,26.98
2022-12-27T22:32:18.644Z,29.57
2022-12-27T22:35:20.774Z,26.10
2022-12-27T22:38:22.868Z,26.62
2022-12-27T22:41:35.510Z,30.92
2022-12-27T22:44:37.555Z,27.73
2022-12-27T22:47:39.732Z,23.93
2022-12-27T22:50:41.859Z,30.00
2022-12-27T22:53:44.328Z,27.85
2022-12-27T22:56:46.418Z,29.52
2022-12-27T22:59:48.614Z,24.85
2022-12-27T23:02:50.824Z,35.33
2022-12-27T23:06:00.406Z,33.20
2022-12-27T23:09:04.230Z,31.83
2022-12-27T23:12:06.930Z,28.15
2022-12-27T23:15:09.518Z,29.77
2022-12-27T23:18:11.590Z,23.13
2022-12-27T23:21:22.729Z,22.60
2022-12-27T23:24:26.652Z,20.75
2022-12-27T23:27:28.811Z,24.35
2022-12-27T23:30:31.028Z,22.92
2022-12-27T23:33:33.746Z,28.00
2022-12-27T23:36:35.819Z,30.50
2022-12-27T23:39:37.874Z,26.00
2022-12-27T23:42:39.983Z,25.98
2022-12-27T23:45:42.015Z,25.83
2022-12-27T23:48:44.819Z,22.73
2022-12-27T23:51:47.049Z,23.23
2022-12-27T23:54:49.204Z,26.33
2022-12-27T23:57:51.315Z,24.10
